Time;durP1;ratioP1;P1;durP2;ratioP2;P2;SDS_P1;SDS_P2;PMS_P1;PMS_P2;Temp;Humidity;BMP_temperature;BMP_pressure;BME280_temperature;BME280_humidity;BME280_pressure;Samples;Min_cycle;Max_cycle;Signal;HPM_P1;HPM_P2
2023/07/30 00:02:17;;;;;;;4.53;2.90;;;;;;;;;;5036372;28;20226;-79
2023/07/30 00:04:45;;;;;;;3.42;3.13;;;;;;;;;;4981375;28;20219;-81
2023/07/30 00:07:11;;;;;;;4.68;3.38;;;;;;;;;;5012523;28;20228;-81
2023/07/30 00:09:42;;;;;;;3.03;2.83;;;;;;;;;;5030623;28;20681;-82
2023/07/30 00:12:08;;;;;;;3.33;2.70;;;;;;;;;;5013045;28;20238;-81
2023/07/30 00:14:34;;;;;;;5.82;3.28;;;;;;;;;;5018589;28;20222;-80
2023/07/30 00:16:59;;;;;;;3.53;3.22;;;;;;;;;;5018114;28;20600;-81
2023/07/30 00:19:25;;;;;;;3.63;3.00;;;;;;;;;;5019573;28;20250;-80
2023/07/30 00:21:50;;;;;;;2.83;2.63;;;;;;;;;;5024091;28;20226;-78
2023/07/30 00:24:16;;;;;;;4.05;3.20;;;;;;;;;;5035485;28;20235;-81
2023/07/30 00:26:41;;;;;;;4.45;3.00;;;;;;;;;;4998521;28;20588;-79
2023/07/30 00:29:07;;;;;;;2.83;2.63;;;;;;;;;;5016029;28;20219;-80
2023/07/30 00:31:33;;;;;;;4.10;3.70;;;;;;;;;;5014356;28;20286;-80
2023/07/30 00:33:58;;;;;;;3.63;3.33;;;;;;;;;;5032057;28;20224;-79
2023/07/30 00:36:24;;;;;;;3.28;3.08;;;;;;;;;;5035700;28;20219;-78
2023/07/30 00:38:49;;;;;;;4.30;3.63;;;;;;;;;;5003440;28;20228;-78
2023/07/30 00:41:15;;;;;;;4.07;3.47;;;;;;;;;;5035547;28;20227;-78
2023/07/30 00:43:40;;;;;;;3.92;3.72;;;;;;;;;;5028952;28;20250;-78
2023/07/30 00:46:06;;;;;;;4.40;4.00;;;;;;;;;;5020468;28;20220;-79
2023/07/30 00:48:31;;;;;;;5.00;4.50;;;;;;;;;;5030894;28;20227;-80
2023/07/30 00:50:58;;;;;;;4.30;4.00;;;;;;;;;;5014919;28;20229;-78
2023/07/30 00:53:23;;;;;;;5.07;4.68;;;;;;;;;;5016697;28;20242;-81
2023/07/30 00:55:49;;;;;;;4.93;4.43;;;;;;;;;;5017940;28;20704;-80
2023/07/30 00:58:17;;;;;;;5.47;5.07;;;;;;;;;;5001469;28;20215;-80
2023/07/30 01:00:43;;;;;;;10.15;5.28;;;;;;;;;;5013821;28;20265;-79
2023/07/30 01:03:09;;;;;;;5.70;5.18;;;;;;;;;;5014814;28;20220;-80
2023/07/30 01:05:36;;;;;;;5.30;4.90;;;;;;;;;;5032404;28;20238;-80
2023/07/30 01:08:02;;;;;;;5.07;4.72;;;;;;;;;;4997861;28;20228;-80
2023/07/30 01:10:28;;;;;;;6.15;4.97;;;;;;;;;;5011933;28;20227;-81
2023/07/30 01:12:58;;;;;;;5.68;5.25;;;;;;;;;;5016254;28;20867;-79
2023/07/30 01:15:24;;;;;;;5.85;5.45;;;;;;;;;;5022137;28;20573;-80
2023/07/30 01:17:50;;;;;;;5.45;4.97;;;;;;;;;;5028260;28;20287;-79
2023/07/30 01:20:18;;;;;;;5.70;5.20;;;;;;;;;;5010364;28;20226;-80
2023/07/30 01:22:44;;;;;;;6.13;5.57;;;;;;;;;;4999803;28;20249;-79
2023/07/30 01:25:10;;;;;;;6.53;6.03;;;;;;;;;;5030375;28;20744;-81
2023/07/30 01:27:41;;;;;;;6.43;5.93;;;;;;;;;;5014884;28;20211;-80
2023/07/30 01:30:12;;;;;;;5.65;5.22;;;;;;;;;;5011709;28;20212;-79
2023/07/30 01:32:38;;;;;;;7.15;6.45;;;;;;;;;;5033894;28;20231;-80
2023/07/30 01:35:04;;;;;;;6.50;6.00;;;;;;;;;;5012693;28;20678;-79
2023/07/30 01:37:29;;;;;;;7.05;6.47;;;;;;;;;;5015851;28;20227;-80
2023/07/30 01:39:55;;;;;;;6.97;6.30;;;;;;;;;;5015594;28;20224;-80
2023/07/30 01:42:20;;;;;;;6.45;5.88;;;;;;;;;;5030494;28;20239;-81
2023/07/30 01:44:46;;;;;;;7.43;6.80;;;;;;;;;;5010946;28;20216;-80
2023/07/30 01:47:13;;;;;;;7.20;6.50;;;;;;;;;;5012533;28;20215;-79
2023/07/30 01:49:39;;;;;;;7.13;6.53;;;;;;;;;;5014010;28;20230;-79
2023/07/30 01:52:05;;;;;;;7.35;6.57;;;;;;;;;;5014609;28;20780;-80
2023/07/30 01:54:32;;;;;;;7.15;6.55;;;;;;;;;;5013673;28;20717;-80
2023/07/30 01:56:59;;;;;;;6.65;6.15;;;;;;;;;;5011945;28;20296;-80
2023/07/30 01:59:25;;;;;;;6.95;6.28;;;;;;;;;;4998075;28;20229;-79
2023/07/30 02:01:50;;;;;;;7.40;6.80;;;;;;;;;;5015061;28;20219;-79
2023/07/30 02:04:17;;;;;;;7.20;6.70;;;;;;;;;;4997276;28;20227;-80
2023/07/30 02:06:43;;;;;;;6.80;6.30;;;;;;;;;;5025491;28;20242;-80
2023/07/30 02:09:08;;;;;;;7.28;6.68;;;;;;;;;;5012212;28;20212;-81
2023/07/30 02:11:34;;;;;;;7.32;6.63;;;;;;;;;;5029553;28;20700;-80
2023/07/30 02:14:00;;;;;;;6.25;5.65;;;;;;;;;;5012721;28;20254;-81
2023/07/30 02:16:25;;;;;;;6.85;6.35;;;;;;;;;;5008959;28;20226;-81
2023/07/30 02:18:51;;;;;;;6.60;6.10;;;;;;;;;;5032069;28;20252;-80
2023/07/30 02:21:16;;;;;;;6.68;6.18;;;;;;;;;;5018149;28;20219;-80
2023/07/30 02:23:42;;;;;;;9.38;6.07;;;;;;;;;;5030150;28;20211;-81
2023/07/30 02:26:12;;;;;;;6.53;5.95;;;;;;;;;;5016315;28;20220;-81
2023/07/30 02:28:40;;;;;;;6.13;5.63;;;;;;;;;;5008602;28;20228;-81
2023/07/30 02:31:08;;;;;;;6.70;5.95;;;;;;;;;;5020628;28;20212;-80
2023/07/30 02:33:36;;;;;;;6.95;6.25;;;;;;;;;;5012625;28;20239;-80
2023/07/30 02:36:01;;;;;;;11.57;6.38;;;;;;;;;;5028568;28;20652;-80
2023/07/30 02:38:27;;;;;;;6.88;6.18;;;;;;;;;;5021520;28;20277;-80
2023/07/30 02:40:52;;;;;;;7.05;6.30;;;;;;;;;;5041696;28;20697;-81
2023/07/30 02:43:18;;;;;;;7.63;6.35;;;;;;;;;;5001853;28;20223;-80
2023/07/30 02:45:47;;;;;;;6.85;6.18;;;;;;;;;;5028421;28;20591;-78
2023/07/30 02:48:12;;;;;;;6.13;5.63;;;;;;;;;;5013711;28;20240;-79
2023/07/30 02:50:38;;;;;;;6.57;6.07;;;;;;;;;;5019094;28;20225;-79
2023/07/30 02:53:05;;;;;;;7.25;6.45;;;;;;;;;;5014321;28;20557;-80
2023/07/30 02:55:33;;;;;;;8.70;6.47;;;;;;;;;;5043030;28;20325;-80
2023/07/30 02:58:01;;;;;;;6.00;5.60;;;;;;;;;;5014182;28;20208;-80
2023/07/30 03:00:26;;;;;;;8.27;6.05;;;;;;;;;;5041171;28;20223;-80
2023/07/30 03:02:54;;;;;;;7.60;5.85;;;;;;;;;;4990341;28;20227;-80
2023/07/30 03:05:20;;;;;;;6.75;6.07;;;;;;;;;;5015082;28;20215;-81
2023/07/30 03:07:46;;;;;;;7.03;6.43;;;;;;;;;;5015760;28;20311;-80
2023/07/30 03:10:11;;;;;;;7.63;5.93;;;;;;;;;;5009970;28;20227;-79
2023/07/30 03:12:37;;;;;;;8.93;6.30;;;;;;;;;;5014530;28;20234;-80
2023/07/30 03:15:05;;;;;;;6.38;5.80;;;;;;;;;;5013517;28;20762;-79
2023/07/30 03:17:33;;;;;;;7.10;6.53;;;;;;;;;;5018445;28;20285;-80
2023/07/30 03:19:59;;;;;;;6.53;5.93;;;;;;;;;;5033823;28;20215;-81
2023/07/30 03:22:24;;;;;;;6.47;5.97;;;;;;;;;;4997674;28;20246;-79
2023/07/30 03:24:50;;;;;;;8.80;6.78;;;;;;;;;;5035962;28;20238;-79
2023/07/30 03:27:15;;;;;;;6.55;5.95;;;;;;;;;;5017495;28;20211;-80
2023/07/30 03:29:41;;;;;;;6.53;5.93;;;;;;;;;;5018511;28;20905;-80
2023/07/30 03:32:07;;;;;;;6.70;5.90;;;;;;;;;;5018987;28;20629;-79
2023/07/30 03:34:35;;;;;;;7.20;6.60;;;;;;;;;;5029503;28;20581;-79
2023/07/30 03:37:00;;;;;;;7.32;6.72;;;;;;;;;;5015907;28;20223;-80
2023/07/30 03:39:26;;;;;;;7.40;6.85;;;;;;;;;;5016329;28;20462;-80
2023/07/30 03:41:52;;;;;;;7.47;6.65;;;;;;;;;;5027383;28;20222;-79
2023/07/30 03:44:17;;;;;;;9.40;7.85;;;;;;;;;;5013548;28;20617;-80
2023/07/30 03:46:43;;;;;;;7.78;7.20;;;;;;;;;;5013976;28;20282;-80
2023/07/30 03:49:09;;;;;;;8.30;7.55;;;;;;;;;;5000689;28;20243;-78
2023/07/30 03:51:34;;;;;;;9.15;8.10;;;;;;;;;;5026298;28;20212;-78
2023/07/30 03:54:00;;;;;;;8.82;8.18;;;;;;;;;;5025123;28;20714;-78
2023/07/30 03:56:28;;;;;;;10.30;9.45;;;;;;;;;;5038345;28;20234;-78
2023/07/30 03:58:54;;;;;;;10.55;9.65;;;;;;;;;;5037636;28;20280;-78
2023/07/30 04:05:06;;;;;;;12.77;10.88;;;;;;;;;;5054042;28;20241;-79
2023/07/30 04:07:31;;;;;;;11.00;10.05;;;;;;;;;;5042055;28;20929;-78
2023/07/30 04:09:57;;;;;;;10.57;9.77;;;;;;;;;;5042684;28;20211;-79
2023/07/30 04:12:23;;;;;;;11.80;9.77;;;;;;;;;;5035397;28;20251;-78
2023/07/30 04:14:50;;;;;;;10.90;9.90;;;;;;;;;;5023153;28;20230;-77
2023/07/30 04:17:16;;;;;;;10.45;9.60;;;;;;;;;;5027520;28;20216;-78
2023/07/30 04:19:41;;;;;;;9.63;8.63;;;;;;;;;;5042347;28;20506;-79
2023/07/30 04:22:07;;;;;;;9.95;9.15;;;;;;;;;;5015960;28;20711;-78
2023/07/30 04:24:32;;;;;;;9.07;8.32;;;;;;;;;;5024760;28;20611;-78
2023/07/30 04:26:58;;;;;;;10.38;9.48;;;;;;;;;;5009415;28;20212;-80
2023/07/30 04:29:27;;;;;;;10.07;9.18;;;;;;;;;;5026004;28;20675;-79
2023/07/30 04:31:54;;;;;;;8.88;8.20;;;;;;;;;;5032629;28;20286;-80
2023/07/30 04:34:22;;;;;;;8.43;7.82;;;;;;;;;;5014790;28;20592;-78
2023/07/30 04:36:53;;;;;;;8.52;7.82;;;;;;;;;;5032771;28;20227;-79
2023/07/30 04:39:19;;;;;;;9.35;8.60;;;;;;;;;;5009457;28;20219;-77
2023/07/30 04:41:45;;;;;;;8.35;7.65;;;;;;;;;;5014343;28;20220;-78
2023/07/30 04:44:10;;;;;;;8.73;7.93;;;;;;;;;;5014045;28;20238;-78
2023/07/30 04:46:36;;;;;;;9.02;8.27;;;;;;;;;;5008214;28;20235;-78
2023/07/30 04:49:03;;;;;;;8.38;7.68;;;;;;;;;;5044796;28;20269;-78
2023/07/30 04:51:28;;;;;;;8.68;7.88;;;;;;;;;;4994545;28;20798;-79
2023/07/30 04:53:54;;;;;;;9.95;7.97;;;;;;;;;;5014255;28;20232;-78
2023/07/30 04:56:19;;;;;;;9.10;7.55;;;;;;;;;;5028648;28;20224;-78
2023/07/30 04:58:45;;;;;;;8.18;7.47;;;;;;;;;;5013550;28;20220;-77
2023/07/30 05:01:10;;;;;;;11.85;6.82;;;;;;;;;;5030820;28;20219;-79
2023/07/30 05:03:36;;;;;;;7.28;6.57;;;;;;;;;;5025161;28;20250;-78
2023/07/30 05:06:01;;;;;;;7.32;6.63;;;;;;;;;;5002096;28;20220;-76
2023/07/30 05:08:27;;;;;;;7.07;6.38;;;;;;;;;;5025939;28;20234;-78
2023/07/30 05:10:55;;;;;;;8.05;6.65;;;;;;;;;;5000044;28;20285;-78
2023/07/30 05:13:23;;;;;;;9.50;6.38;;;;;;;;;;5026014;28;20243;-78
2023/07/30 05:15:49;;;;;;;7.68;6.32;;;;;;;;;;5017619;28;20207;-77
2023/07/30 05:18:17;;;;;;;7.28;5.43;;;;;;;;;;5016229;28;20728;-78
2023/07/30 05:20:47;;;;;;;8.82;5.22;;;;;;;;;;5011365;28;20288;-77
2023/07/30 05:23:15;;;;;;;4.95;4.53;;;;;;;;;;5006920;28;20313;-81
2023/07/30 05:25:41;;;;;;;5.60;4.68;;;;;;;;;;5015683;28;20215;-80
2023/07/30 05:28:11;;;;;;;6.50;4.32;;;;;;;;;;5037779;28;20215;-78
2023/07/30 05:30:36;;;;;;;8.85;4.90;;;;;;;;;;5014051;28;20298;-80
2023/07/30 05:33:02;;;;;;;9.35;4.93;;;;;;;;;;5003331;28;20216;-79
2023/07/30 05:35:30;;;;;;;6.88;4.10;;;;;;;;;;5006163;28;20707;-78
2023/07/30 05:37:58;;;;;;;6.32;4.25;;;;;;;;;;5016986;28;20237;-79
2023/07/30 05:40:23;;;;;;;8.45;4.47;;;;;;;;;;5014700;28;20234;-80
2023/07/30 05:42:51;;;;;;;7.78;3.90;;;;;;;;;;5006061;28;20329;-80
2023/07/30 05:45:17;;;;;;;6.75;4.22;;;;;;;;;;5008304;28;20306;-79
2023/07/30 05:47:42;;;;;;;7.35;4.13;;;;;;;;;;5031076;28;20315;-78
2023/07/30 05:50:08;;;;;;;6.18;4.22;;;;;;;;;;5027381;28;20660;-78
2023/07/30 05:52:34;;;;;;;4.72;3.53;;;;;;;;;;5028261;28;20273;-80
2023/07/30 05:54:59;;;;;;;6.53;3.90;;;;;;;;;;5009596;28;20283;-78
2023/07/30 05:57:25;;;;;;;8.45;4.30;;;;;;;;;;4992610;28;20219;-78
2023/07/30 05:59:53;;;;;;;6.13;4.03;;;;;;;;;;5027666;28;20241;-78
2023/07/30 06:02:18;;;;;;;5.80;4.00;;;;;;;;;;5005463;28;20215;-79
2023/07/30 06:04:44;;;;;;;6.43;3.60;;;;;;;;;;5026826;28;20224;-79
2023/07/30 06:07:10;;;;;;;5.00;3.42;;;;;;;;;;5000620;28;20215;-78
2023/07/30 06:09:36;;;;;;;4.18;3.65;;;;;;;;;;5021567;28;20279;-80
2023/07/30 06:12:01;;;;;;;5.10;3.58;;;;;;;;;;4996484;28;20284;-79
2023/07/30 06:14:27;;;;;;;6.70;4.20;;;;;;;;;;5010208;28;20235;-79
2023/07/30 06:16:55;;;;;;;7.82;3.22;;;;;;;;;;5016358;28;20265;-82
2023/07/30 06:19:21;;;;;;;6.60;3.40;;;;;;;;;;5023404;28;20215;-78
2023/07/30 06:21:48;;;;;;;6.43;3.17;;;;;;;;;;5034023;28;20223;-79
2023/07/30 06:24:14;;;;;;;7.70;3.35;;;;;;;;;;5016260;28;20226;-77
2023/07/30 06:26:39;;;;;;;7.20;2.90;;;;;;;;;;5023360;28;20215;-78
2023/07/30 06:29:05;;;;;;;7.03;3.22;;;;;;;;;;5039207;28;20219;-77
2023/07/30 06:31:31;;;;;;;7.40;3.50;;;;;;;;;;5022994;28;20284;-79
2023/07/30 06:33:56;;;;;;;5.07;3.20;;;;;;;;;;5012548;28;20223;-79
2023/07/30 06:36:22;;;;;;;3.95;2.97;;;;;;;;;;5008754;28;20230;-80
2023/07/30 06:38:47;;;;;;;8.63;3.63;;;;;;;;;;4999905;28;20234;-75
2023/07/30 06:41:13;;;;;;;5.93;3.00;;;;;;;;;;5025401;28;20699;-78
2023/07/30 06:43:41;;;;;;;7.65;2.90;;;;;;;;;;5016601;28;20232;-79
2023/07/30 06:46:07;;;;;;;3.95;2.47;;;;;;;;;;5044299;28;20215;-81
2023/07/30 06:48:33;;;;;;;5.78;2.95;;;;;;;;;;5029892;28;20285;-80
2023/07/30 06:50:58;;;;;;;4.30;2.65;;;;;;;;;;5012176;28;20215;-81
2023/07/30 06:53:24;;;;;;;8.57;2.78;;;;;;;;;;5017585;28;20235;-78
2023/07/30 06:55:49;;;;;;;7.10;3.17;;;;;;;;;;5019057;28;20218;-80
2023/07/30 06:58:18;;;;;;;5.47;2.88;;;;;;;;;;5018600;28;20219;-79
2023/07/30 07:00:43;;;;;;;12.10;3.00;;;;;;;;;;5028040;28;20397;-78
2023/07/30 07:03:09;;;;;;;4.45;3.20;;;;;;;;;;5017010;28;20721;-81
2023/07/30 07:05:35;;;;;;;5.32;3.00;;;;;;;;;;5021345;28;20222;-80
2023/07/30 07:08:00;;;;;;;4.00;2.67;;;;;;;;;;4999185;28;20320;-78
2023/07/30 07:10:26;;;;;;;6.05;2.72;;;;;;;;;;5018923;28;20224;-76
2023/07/30 07:12:54;;;;;;;4.85;3.08;;;;;;;;;;5009162;28;20223;-79
2023/07/30 07:15:19;;;;;;;8.77;3.13;;;;;;;;;;5034807;28;20215;-80
2023/07/30 07:17:47;;;;;;;7.95;2.88;;;;;;;;;;5006681;28;20223;-80
2023/07/30 07:20:15;;;;;;;9.48;2.80;;;;;;;;;;5005205;28;20231;-79
2023/07/30 07:22:45;;;;;;;8.18;3.40;;;;;;;;;;5053754;28;20335;-78
2023/07/30 07:25:10;;;;;;;5.75;2.65;;;;;;;;;;5043109;28;20362;-78
2023/07/30 07:27:38;;;;;;;8.07;3.10;;;;;;;;;;5038716;28;20685;-77
2023/07/30 07:30:04;;;;;;;5.10;2.95;;;;;;;;;;5014110;28;20216;-80
2023/07/30 07:32:30;;;;;;;5.45;2.45;;;;;;;;;;4993730;28;20234;-79
2023/07/30 07:34:58;;;;;;;10.68;2.80;;;;;;;;;;5036354;28;20276;-81
2023/07/30 07:37:25;;;;;;;5.97;2.90;;;;;;;;;;5016518;28;20227;-78
2023/07/30 07:39:51;;;;;;;4.72;2.63;;;;;;;;;;5003736;28;21189;-81
2023/07/30 07:42:17;;;;;;;5.75;2.75;;;;;;;;;;5010995;28;20211;-80
2023/07/30 07:44:45;;;;;;;4.90;2.70;;;;;;;;;;4999787;28;20278;-80
2023/07/30 07:47:13;;;;;;;10.00;2.80;;;;;;;;;;5034931;28;20220;-79
2023/07/30 07:49:39;;;;;;;6.45;2.38;;;;;;;;;;5015651;28;20879;-80
2023/07/30 07:52:05;;;;;;;12.70;3.25;;;;;;;;;;5006743;28;20220;-80
2023/07/30 07:54:30;;;;;;;6.80;3.10;;;;;;;;;;5015307;28;20243;-80
2023/07/30 07:56:56;;;;;;;5.70;2.80;;;;;;;;;;5000227;28;20231;-80
2023/07/30 07:59:21;;;;;;;3.95;2.28;;;;;;;;;;5018363;28;20762;-80
2023/07/30 08:01:49;;;;;;;6.43;2.78;;;;;;;;;;5020459;28;20227;-81
2023/07/30 08:04:15;;;;;;;8.13;2.80;;;;;;;;;;5029184;28;20302;-79
2023/07/30 08:06:43;;;;;;;4.97;3.03;;;;;;;;;;5028856;28;20236;-83
2023/07/30 08:09:17;;;;;;;6.32;2.60;;;;;;;;;;5028077;28;20236;-79
2023/07/30 08:11:45;;;;;;;5.53;2.70;;;;;;;;;;5008919;28;20281;-81
2023/07/30 08:14:11;;;;;;;6.30;2.55;;;;;;;;;;5019286;28;20302;-77
2023/07/30 08:16:36;;;;;;;7.38;2.42;;;;;;;;;;5005674;28;20222;-81
2023/07/30 08:19:02;;;;;;;4.60;2.85;;;;;;;;;;5020645;28;20234;-81
2023/07/30 08:21:27;;;;;;;4.35;2.55;;;;;;;;;;5046998;28;20771;-79
2023/07/30 08:23:53;;;;;;;6.47;2.60;;;;;;;;;;5001414;28;20242;-78
2023/07/30 08:26:18;;;;;;;5.90;2.40;;;;;;;;;;5032983;28;20220;-82
2023/07/30 08:28:44;;;;;;;7.88;2.70;;;;;;;;;;5002672;28;20235;-78
2023/07/30 08:31:09;;;;;;;4.82;2.65;;;;;;;;;;4989182;28;20226;-79
2023/07/30 08:33:37;;;;;;;5.97;2.60;;;;;;;;;;4999427;28;20585;-80
2023/07/30 08:36:03;;;;;;;5.03;2.80;;;;;;;;;;5005102;28;20224;-80
2023/07/30 08:38:29;;;;;;;5.13;2.47;;;;;;;;;;5033301;28;20219;-80
2023/07/30 08:41:00;;;;;;;8.50;2.70;;;;;;;;;;5005414;28;20234;-79
2023/07/30 08:43:28;;;;;;;7.65;2.90;;;;;;;;;;5033761;28;20235;-77
2023/07/30 08:45:53;;;;;;;9.57;2.78;;;;;;;;;;5008092;28;20224;-80
2023/07/30 08:48:21;;;;;;;4.47;2.30;;;;;;;;;;5043458;28;20219;-78
2023/07/30 08:50:48;;;;;;;12.30;2.70;;;;;;;;;;5017694;28;20219;-79
2023/07/30 08:53:16;;;;;;;4.78;2.97;;;;;;;;;;5030920;28;20790;-78
2023/07/30 08:55:44;;;;;;;8.23;2.97;;;;;;;;;;5025715;28;20220;-79
2023/07/30 08:58:10;;;;;;;4.90;2.65;;;;;;;;;;4992285;28;20215;-77
2023/07/30 09:00:40;;;;;;;4.72;2.47;;;;;;;;;;5015949;28;20223;-79
2023/07/30 09:03:06;;;;;;;6.43;3.00;;;;;;;;;;5043713;28;20311;-78
2023/07/30 09:05:31;;;;;;;3.47;2.10;;;;;;;;;;5034780;28;20222;-78
2023/07/30 09:07:57;;;;;;;6.63;3.17;;;;;;;;;;5013798;28;20212;-79
2023/07/30 09:10:26;;;;;;;7.32;2.75;;;;;;;;;;5044072;28;20222;-79
2023/07/30 09:12:55;;;;;;;7.47;3.08;;;;;;;;;;4995275;28;20231;-78
2023/07/30 09:15:30;;;;;;;5.95;2.72;;;;;;;;;;5031724;28;20254;-76
2023/07/30 09:18:00;;;;;;;6.22;2.60;;;;;;;;;;5029982;28;20208;-79
2023/07/30 09:20:26;;;;;;;5.38;2.83;;;;;;;;;;5012504;28;20650;-78
2023/07/30 09:22:52;;;;;;;5.75;2.55;;;;;;;;;;5005579;28;20660;-80
2023/07/30 09:25:20;;;;;;;6.53;2.97;;;;;;;;;;5018041;28;20215;-79
2023/07/30 09:27:52;;;;;;;7.65;2.95;;;;;;;;;;5024567;28;20227;-78
2023/07/30 09:30:24;;;;;;;12.40;2.72;;;;;;;;;;5016980;28;20218;-78
2023/07/30 09:32:57;;;;;;;7.25;2.95;;;;;;;;;;5029066;28;20226;-78
2023/07/30 09:35:26;;;;;;;6.47;2.75;;;;;;;;;;5039168;28;20211;-76
2023/07/30 09:37:59;;;;;;;7.63;2.78;;;;;;;;;;5064151;27;20572;-75
2023/07/30 09:40:35;;;;;;;4.25;2.70;;;;;;;;;;5046068;28;20210;-76
2023/07/30 09:43:05;;;;;;;6.20;2.83;;;;;;;;;;5059018;28;20272;-77
2023/07/30 09:45:35;;;;;;;8.85;3.08;;;;;;;;;;5039894;28;20231;-75
2023/07/30 09:48:04;;;;;;;8.43;3.00;;;;;;;;;;5021913;28;20337;-75
2023/07/30 09:50:32;;;;;;;7.43;3.05;;;;;;;;;;5022219;28;20692;-76
2023/07/30 09:53:01;;;;;;;6.60;3.63;;;;;;;;;;5039101;28;20594;-75
2023/07/30 09:55:30;;;;;;;7.68;3.03;;;;;;;;;;5028072;28;20632;-76
2023/07/30 09:57:55;;;;;;;5.55;3.10;;;;;;;;;;5019387;23;20237;-76
2023/07/30 10:00:28;;;;;;;4.70;2.58;;;;;;;;;;4986552;28;20392;-78
2023/07/30 10:02:54;;;;;;;9.77;2.80;;;;;;;;;;5017888;28;20229;-77
2023/07/30 10:05:20;;;;;;;9.45;3.05;;;;;;;;;;5009578;28;21070;-77
2023/07/30 10:07:55;;;;;;;11.55;3.30;;;;;;;;;;4991223;28;20225;-76
2023/07/30 10:10:21;;;;;;;10.85;3.45;;;;;;;;;;4972701;28;20213;-77
2023/07/30 10:12:47;;;;;;;6.82;2.88;;;;;;;;;;5009351;28;20276;-78
2023/07/30 10:15:12;;;;;;;12.15;3.38;;;;;;;;;;5005067;28;20225;-75
2023/07/30 10:17:38;;;;;;;8.65;3.50;;;;;;;;;;4989253;28;20232;-76
2023/07/30 10:20:22;;;;;;;6.45;3.15;;;;;;;;;;5022044;28;20276;-76
2023/07/30 10:22:57;;;;;;;10.73;3.08;;;;;;;;;;4990946;28;20277;-79
2023/07/30 10:25:31;;;;;;;7.07;3.25;;;;;;;;;;4987988;28;21788;-79
2023/07/30 10:27:58;;;;;;;5.32;2.70;;;;;;;;;;4992153;28;20224;-78
2023/07/30 10:30:29;;;;;;;6.85;3.33;;;;;;;;;;4982494;28;20251;-76
2023/07/30 10:32:55;;;;;;;5.28;2.85;;;;;;;;;;4991822;28;20865;-78
2023/07/30 10:35:37;;;;;;;6.35;2.83;;;;;;;;;;5027057;28;20216;-77
2023/07/30 10:38:13;;;;;;;8.15;3.05;;;;;;;;;;5023303;28;20320;-78
2023/07/30 10:40:39;;;;;;;7.03;3.33;;;;;;;;;;5022510;28;20778;-77
2023/07/30 10:43:14;;;;;;;5.85;3.40;;;;;;;;;;4979215;28;20214;-77
2023/07/30 10:45:54;;;;;;;8.68;3.40;;;;;;;;;;5007392;28;20303;-77
2023/07/30 10:48:32;;;;;;;7.65;3.63;;;;;;;;;;5005406;28;20218;-79
2023/07/30 10:50:57;;;;;;;11.13;3.53;;;;;;;;;;4997676;28;20570;-77
2023/07/30 10:53:25;;;;;;;10.73;3.75;;;;;;;;;;4981368;28;20232;-77
2023/07/30 10:55:54;;;;;;;8.13;2.95;;;;;;;;;;4981218;28;20225;-78
2023/07/30 10:58:20;;;;;;;6.28;3.30;;;;;;;;;;4982106;28;20308;-77
2023/07/30 11:00:46;;;;;;;7.20;3.20;;;;;;;;;;4994288;28;20754;-78
2023/07/30 11:03:13;;;;;;;6.45;3.50;;;;;;;;;;4988918;28;20269;-76
2023/07/30 11:05:41;;;;;;;4.75;2.88;;;;;;;;;;4991511;28;20684;-80
2023/07/30 11:08:09;;;;;;;7.13;3.28;;;;;;;;;;4959508;28;20582;-77
2023/07/30 11:10:49;;;;;;;10.32;3.20;;;;;;;;;;4994225;28;20353;-77
2023/07/30 11:13:17;;;;;;;6.65;3.20;;;;;;;;;;4974718;28;20283;-79
2023/07/30 11:15:47;;;;;;;5.95;3.08;;;;;;;;;;4981843;28;20321;-79
2023/07/30 11:18:15;;;;;;;6.05;3.05;;;;;;;;;;4996326;28;20655;-79
2023/07/30 11:20:43;;;;;;;7.18;3.30;;;;;;;;;;4978796;28;20225;-77
2023/07/30 11:23:18;;;;;;;4.05;2.83;;;;;;;;;;4994426;28;20240;-80
2023/07/30 11:25:49;;;;;;;6.55;3.30;;;;;;;;;;4974534;28;20229;-78
2023/07/30 11:28:28;;;;;;;4.63;2.55;;;;;;;;;;4958769;28;20591;-79
2023/07/30 11:30:53;;;;;;;6.28;2.67;;;;;;;;;;4982421;28;20229;-78
2023/07/30 11:33:19;;;;;;;3.97;2.80;;;;;;;;;;4981335;28;20224;-79
2023/07/30 11:35:47;;;;;;;6.15;2.90;;;;;;;;;;4979258;28;20780;-78
2023/07/30 11:38:13;;;;;;;4.97;2.90;;;;;;;;;;4978122;28;20227;-77
2023/07/30 11:40:39;;;;;;;6.72;2.95;;;;;;;;;;5005116;28;20225;-79
2023/07/30 11:43:05;;;;;;;9.50;3.17;;;;;;;;;;4974399;28;20256;-78
2023/07/30 11:45:35;;;;;;;7.03;3.25;;;;;;;;;;5004132;28;20218;-78
2023/07/30 11:48:08;;;;;;;6.57;2.78;;;;;;;;;;5010121;28;20257;-80
2023/07/30 11:50:47;;;;;;;5.80;3.25;;;;;;;;;;4959771;28;20230;-80
2023/07/30 11:53:13;;;;;;;5.95;2.85;;;;;;;;;;4985563;28;20772;-79
2023/07/30 11:55:38;;;;;;;5.22;2.92;;;;;;;;;;4972666;28;20225;-79
2023/07/30 11:58:05;;;;;;;7.50;3.40;;;;;;;;;;4980588;28;20302;-77
2023/07/30 12:00:34;;;;;;;4.30;2.60;;;;;;;;;;4960931;28;20244;-80
2023/07/30 12:03:04;;;;;;;5.32;3.00;;;;;;;;;;4989609;28;20262;-78
2023/07/30 12:05:36;;;;;;;5.65;3.08;;;;;;;;;;4967798;28;20230;-81
2023/07/30 12:08:07;;;;;;;6.72;2.83;;;;;;;;;;4952954;28;20250;-79
2023/07/30 12:10:46;;;;;;;7.50;2.92;;;;;;;;;;4977370;28;20223;-79
2023/07/30 12:13:19;;;;;;;4.95;2.80;;;;;;;;;;4973927;28;20231;-79
2023/07/30 12:15:53;;;;;;;5.93;3.17;;;;;;;;;;4980064;28;20221;-81
2023/07/30 12:18:21;;;;;;;4.20;2.70;;;;;;;;;;4956856;28;20213;-79
2023/07/30 12:20:47;;;;;;;5.88;2.60;;;;;;;;;;4962003;28;20218;-78
2023/07/30 12:23:15;;;;;;;3.88;2.40;;;;;;;;;;4954166;28;20221;-79
2023/07/30 12:25:41;;;;;;;4.57;2.53;;;;;;;;;;5003135;28;20250;-79
2023/07/30 12:28:09;;;;;;;4.68;2.83;;;;;;;;;;4968112;28;20225;-81
2023/07/30 12:30:36;;;;;;;6.82;2.88;;;;;;;;;;4987212;28;20219;-80
2023/07/30 12:33:05;;;;;;;9.45;3.00;;;;;;;;;;4947021;28;20234;-78
2023/07/30 12:35:31;;;;;;;8.95;2.70;;;;;;;;;;4992485;28;20320;-78
2023/07/30 12:37:57;;;;;;;7.88;3.25;;;;;;;;;;5006957;28;20242;-80
2023/07/30 12:40:23;;;;;;;6.07;2.80;;;;;;;;;;4992637;28;20246;-79
2023/07/30 12:42:49;;;;;;;5.80;3.30;;;;;;;;;;4998188;28;20254;-80
2023/07/30 12:45:14;;;;;;;6.03;2.88;;;;;;;;;;4972850;28;20290;-80
2023/07/30 12:47:40;;;;;;;8.48;2.90;;;;;;;;;;4997126;28;20840;-79
2023/07/30 12:50:06;;;;;;;7.82;2.65;;;;;;;;;;4990924;28;20226;-80
2023/07/30 12:52:32;;;;;;;3.67;2.35;;;;;;;;;;4978184;28;20694;-79
2023/07/30 12:54:58;;;;;;;4.72;2.58;;;;;;;;;;4993503;28;20221;-79
2023/07/30 12:57:24;;;;;;;8.55;2.72;;;;;;;;;;4976661;28;20252;-80
2023/07/30 12:59:50;;;;;;;3.60;2.53;;;;;;;;;;4947667;28;20257;-79
2023/07/30 13:02:17;;;;;;;3.45;2.40;;;;;;;;;;4960541;28;20218;-79
2023/07/30 13:04:45;;;;;;;7.22;2.70;;;;;;;;;;4976296;28;20233;-77
2023/07/30 13:07:14;;;;;;;5.10;3.03;;;;;;;;;;4973124;28;20221;-81
2023/07/30 13:09:41;;;;;;;5.07;2.67;;;;;;;;;;4978515;28;20961;-79
2023/07/30 13:12:10;;;;;;;6.65;2.50;;;;;;;;;;4992884;28;20361;-80
2023/07/30 13:14:35;;;;;;;5.25;2.50;;;;;;;;;;4961517;28;20223;-79
2023/07/30 13:17:03;;;;;;;3.60;2.67;;;;;;;;;;5005062;28;20248;-79
2023/07/30 13:19:32;;;;;;;4.32;2.63;;;;;;;;;;4960581;28;20217;-79
2023/07/30 13:21:58;;;;;;;3.72;2.30;;;;;;;;;;4974261;28;20228;-77
2023/07/30 13:24:23;;;;;;;4.50;2.55;;;;;;;;;;4993912;28;20226;-77
2023/07/30 13:26:49;;;;;;;4.20;2.50;;;;;;;;;;5005620;28;20586;-78
2023/07/30 13:29:17;;;;;;;5.57;2.92;;;;;;;;;;4965103;28;20844;-78
2023/07/30 13:31:45;;;;;;;4.68;2.53;;;;;;;;;;5000465;28;20225;-78
2023/07/30 13:34:10;;;;;;;4.47;2.65;;;;;;;;;;4980051;28;20233;-79
2023/07/30 13:36:38;;;;;;;7.47;2.65;;;;;;;;;;4996160;28;20229;-80
2023/07/30 13:39:06;;;;;;;8.20;2.92;;;;;;;;;;4993310;28;20225;-78
2023/07/30 13:41:32;;;;;;;5.40;3.08;;;;;;;;;;4971074;28;20246;-79
2023/07/30 13:44:01;;;;;;;8.38;3.03;;;;;;;;;;4971795;28;20237;-77
2023/07/30 13:46:26;;;;;;;7.63;3.33;;;;;;;;;;4990616;28;20634;-78
2023/07/30 13:48:52;;;;;;;3.15;1.98;;;;;;;;;;4964624;28;20225;-80
2023/07/30 13:51:19;;;;;;;2.33;2.05;;;;;;;;;;4978786;28;20284;-80
2023/07/30 13:53:45;;;;;;;5.65;1.85;;;;;;;;;;4978498;28;20230;-79
2023/07/30 13:56:11;;;;;;;2.80;1.80;;;;;;;;;;4973810;28;20237;-79
2023/07/30 13:58:37;;;;;;;4.22;1.90;;;;;;;;;;4966899;28;20226;-80
2023/07/30 14:01:03;;;;;;;3.25;1.95;;;;;;;;;;4980987;28;20646;-80
2023/07/30 14:03:29;;;;;;;3.83;2.10;;;;;;;;;;4974743;28;20633;-78
2023/07/30 14:05:54;;;;;;;4.03;2.28;;;;;;;;;;4989766;28;20225;-81
2023/07/30 14:08:20;;;;;;;3.65;2.08;;;;;;;;;;4974439;28;20861;-79
2023/07/30 14:10:48;;;;;;;3.60;1.77;;;;;;;;;;4978397;28;20719;-82
2023/07/30 14:13:14;;;;;;;3.33;1.77;;;;;;;;;;4981096;28;20752;-79
2023/07/30 14:15:41;;;;;;;4.40;2.13;;;;;;;;;;4950080;28;20217;-81
2023/07/30 14:18:10;;;;;;;4.32;2.13;;;;;;;;;;4972649;28;20310;-81
2023/07/30 14:20:37;;;;;;;3.03;1.70;;;;;;;;;;4972949;28;20278;-80
2023/07/30 14:23:04;;;;;;;2.17;1.70;;;;;;;;;;4998207;28;20218;-80
2023/07/30 14:25:29;;;;;;;3.55;1.90;;;;;;;;;;4962274;28;20275;-80
2023/07/30 14:27:57;;;;;;;3.28;1.98;;;;;;;;;;4971432;28;20304;-82
2023/07/30 14:30:23;;;;;;;2.65;1.88;;;;;;;;;;5000100;28;20259;-79
2023/07/30 14:32:48;;;;;;;5.68;1.50;;;;;;;;;;4998927;28;20241;-82
2023/07/30 14:35:14;;;;;;;5.55;2.25;;;;;;;;;;4982367;28;20218;-80
2023/07/30 14:37:42;;;;;;;3.65;2.00;;;;;;;;;;4995604;28;20240;-78
2023/07/30 14:40:08;;;;;;;3.38;1.83;;;;;;;;;;4981344;28;20221;-81
2023/07/30 14:42:34;;;;;;;2.97;1.85;;;;;;;;;;4997550;28;20697;-80
2023/07/30 14:45:02;;;;;;;3.03;1.65;;;;;;;;;;4996234;28;20218;-79
2023/07/30 14:47:28;;;;;;;3.45;1.88;;;;;;;;;;5001356;28;20225;-79